sensor_id;sensor_type;location;lat;lon;timestamp;temperature;humidity
7411;DHT22;3747;48.628;9.058;2023-02-28T00:00:31;-3.80;99.90
7411;DHT22;3747;48.628;9.058;2023-02-28T00:02:58;-3.80;99.90
7411;DHT22;3747;48.628;9.058;2023-02-28T00:05:26;-3.80;99.90
7411;DHT22;3747;48.628;9.058;2023-02-28T00:07:53;-3.90;99.90
7411;DHT22;3747;48.628;9.058;2023-02-28T00:10:22;-3.90;99.90
7411;DHT22;3747;48.628;9.058;2023-02-28T00:12:49;-4.00;99.90
7411;DHT22;3747;48.628;9.058;2023-02-28T00:15:18;-3.90;99.90
7411;DHT22;3747;48.628;9.058;2023-02-28T00:17:44;-4.00;99.90
7411;DHT22;3747;48.628;9.058;2023-02-28T00:20:13;-4.00;99.90
7411;DHT22;3747;48.628;9.058;2023-02-28T00:22:41;-3.90;99.90
7411;DHT22;3747;48.628;9.058;2023-02-28T00:25:08;-3.90;99.90
7411;DHT22;3747;48.628;9.058;2023-02-28T00:27:36;-4.00;99.90
7411;DHT22;3747;48.628;9.058;2023-02-28T00:30:06;-4.00;99.90
7411;DHT22;3747;48.628;9.058;2023-02-28T00:32:35;-4.00;99.90
7411;DHT22;3747;48.628;9.058;2023-02-28T00:35:02;-4.00;99.90
7411;DHT22;3747;48.628;9.058;2023-02-28T00:37:29;-4.00;99.90
7411;DHT22;3747;48.628;9.058;2023-02-28T00:39:56;-4.10;99.90
7411;DHT22;3747;48.628;9.058;2023-02-28T00:42:22;-4.10;99.90
7411;DHT22;3747;48.628;9.058;2023-02-28T00:44:49;-4.10;99.90
7411;DHT22;3747;48.628;9.058;2023-02-28T00:47:16;-4.20;99.90
7411;DHT22;3747;48.628;9.058;2023-02-28T00:49:44;-4.10;99.90
7411;DHT22;3747;48.628;9.058;2023-02-28T00:52:11;-4.10;99.90
7411;DHT22;3747;48.628;9.058;2023-02-28T00:54:37;-4.20;99.90
7411;DHT22;3747;48.628;9.058;2023-02-28T00:57:04;-4.20;99.90
7411;DHT22;3747;48.628;9.058;2023-02-28T00:59:31;-4.20;99.90
7411;DHT22;3747;48.628;9.058;2023-02-28T01:01:58;-4.20;99.90
7411;DHT22;3747;48.628;9.058;2023-02-28T01:04:24;-4.10;99.90
7411;DHT22;3747;48.628;9.058;2023-02-28T01:06:52;-4.20;99.90
7411;DHT22;3747;48.628;9.058;2023-02-28T01:09:19;-4.20;99.90
7411;DHT22;3747;48.628;9.058;2023-02-28T01:11:46;-4.20;99.90
7411;DHT22;3747;48.628;9.058;2023-02-28T01:14:14;-4.20;99.90
7411;DHT22;3747;48.628;9.058;2023-02-28T01:16:42;-4.30;99.90
7411;DHT22;3747;48.628;9.058;2023-02-28T01:19:08;-4.40;99.90
7411;DHT22;3747;48.628;9.058;2023-02-28T01:21:35;-4.40;99.90
7411;DHT22;3747;48.628;9.058;2023-02-28T01:24:04;-4.30;99.90
7411;DHT22;3747;48.628;9.058;2023-02-28T01:26:31;-4.30;99.90
7411;DHT22;3747;48.628;9.058;2023-02-28T01:28:58;-4.30;99.90
7411;DHT22;3747;48.628;9.058;2023-02-28T01:31:25;-4.40;99.90
7411;DHT22;3747;48.628;9.058;2023-02-28T01:33:52;-4.40;99.90
7411;DHT22;3747;48.628;9.058;2023-02-28T01:36:20;-4.40;99.90
7411;DHT22;3747;48.628;9.058;2023-02-28T01:38:47;-4.40;99.90
7411;DHT22;3747;48.628;9.058;2023-02-28T01:41:18;-4.40;99.90
7411;DHT22;3747;48.628;9.058;2023-02-28T01:44:00;-4.40;99.90
7411;DHT22;3747;48.628;9.058;2023-02-28T01:46:30;-4.30;99.90
7411;DHT22;3747;48.628;9.058;2023-02-28T01:49:02;-4.30;99.90
7411;DHT22;3747;48.628;9.058;2023-02-28T01:51:35;-4.40;99.90
7411;DHT22;3747;48.628;9.058;2023-02-28T01:54:05;-4.40;99.90
7411;DHT22;3747;48.628;9.058;2023-02-28T01:56:43;-4.40;99.90
7411;DHT22;3747;48.628;9.058;2023-02-28T01:59:12;-4.40;99.90
7411;DHT22;3747;48.628;9.058;2023-02-28T02:01:40;-4.40;99.90
7411;DHT22;3747;48.628;9.058;2023-02-28T02:04:07;-4.40;99.90
7411;DHT22;3747;48.628;9.058;2023-02-28T02:06:37;-4.40;99.90
7411;DHT22;3747;48.628;9.058;2023-02-28T02:09:04;-4.40;99.90
7411;DHT22;3747;48.628;9.058;2023-02-28T02:11:31;-4.40;99.90
7411;DHT22;3747;48.628;9.058;2023-02-28T02:14:13;-4.40;99.90
7411;DHT22;3747;48.628;9.058;2023-02-28T02:16:57;-4.40;99.90
7411;DHT22;3747;48.628;9.058;2023-02-28T02:23:03;-4.40;99.90
7411;DHT22;3747;48.628;9.058;2023-02-28T02:25:36;-4.30;99.90
7411;DHT22;3747;48.628;9.058;2023-02-28T02:31:35;-4.20;99.90
7411;DHT22;3747;48.628;9.058;2023-02-28T02:34:29;-4.10;99.90
7411;DHT22;3747;48.628;9.058;2023-02-28T02:37:06;-4.20;99.90
7411;DHT22;3747;48.628;9.058;2023-02-28T02:39:40;-4.20;99.90
7411;DHT22;3747;48.628;9.058;2023-02-28T02:42:15;-4.10;99.90
7411;DHT22;3747;48.628;9.058;2023-02-28T02:44:49;-4.10;99.90
7411;DHT22;3747;48.628;9.058;2023-02-28T02:47:20;-4.10;99.90
7411;DHT22;3747;48.628;9.058;2023-02-28T02:49:52;-4.00;99.90
7411;DHT22;3747;48.628;9.058;2023-02-28T02:52:23;-4.00;99.90
7411;DHT22;3747;48.628;9.058;2023-02-28T02:54:52;-4.00;99.90
7411;DHT22;3747;48.628;9.058;2023-02-28T02:57:23;-4.00;99.90
7411;DHT22;3747;48.628;9.058;2023-02-28T02:59:53;-4.00;99.90
7411;DHT22;3747;48.628;9.058;2023-02-28T03:02:21;-4.00;99.90
7411;DHT22;3747;48.628;9.058;2023-02-28T03:04:53;-3.90;99.90
7411;DHT22;3747;48.628;9.058;2023-02-28T03:07:26;-3.90;99.90
7411;DHT22;3747;48.628;9.058;2023-02-28T03:09:53;-3.90;99.90
7411;DHT22;3747;48.628;9.058;2023-02-28T03:12:20;-3.90;99.90
7411;DHT22;3747;48.628;9.058;2023-02-28T03:14:56;-3.90;99.90
7411;DHT22;3747;48.628;9.058;2023-02-28T03:17:35;-3.90;99.90
7411;DHT22;3747;48.628;9.058;2023-02-28T03:20:12;-4.00;99.90
7411;DHT22;3747;48.628;9.058;2023-02-28T03:22:50;-4.00;99.90
7411;DHT22;3747;48.628;9.058;2023-02-28T03:25:22;-4.00;99.90
7411;DHT22;3747;48.628;9.058;2023-02-28T03:28:00;-4.00;99.90
7411;DHT22;3747;48.628;9.058;2023-02-28T03:30:33;-4.00;99.90
7411;DHT22;3747;48.628;9.058;2023-02-28T03:33:06;-4.00;99.90
7411;DHT22;3747;48.628;9.058;2023-02-28T03:35:38;-3.90;99.90
7411;DHT22;3747;48.628;9.058;2023-02-28T03:38:11;-3.80;99.90
7411;DHT22;3747;48.628;9.058;2023-02-28T03:40:43;-3.80;99.90
7411;DHT22;3747;48.628;9.058;2023-02-28T03:43:15;-3.80;99.90
7411;DHT22;3747;48.628;9.058;2023-02-28T03:45:45;-3.70;99.90
7411;DHT22;3747;48.628;9.058;2023-02-28T03:48:15;-3.70;99.90
7411;DHT22;3747;48.628;9.058;2023-02-28T03:50:47;-3.60;99.90
7411;DHT22;3747;48.628;9.058;2023-02-28T03:53:18;-3.60;99.90
7411;DHT22;3747;48.628;9.058;2023-02-28T03:55:49;-3.60;99.90
7411;DHT22;3747;48.628;9.058;2023-02-28T03:58:22;-3.60;99.90
7411;DHT22;3747;48.628;9.058;2023-02-28T04:00:56;-3.60;99.90
7411;DHT22;3747;48.628;9.058;2023-02-28T04:03:24;-3.60;99.90
7411;DHT22;3747;48.628;9.058;2023-02-28T04:05:54;-3.60;99.90
7411;DHT22;3747;48.628;9.058;2023-02-28T04:08:22;-3.60;99.90
7411;DHT22;3747;48.628;9.058;2023-02-28T04:10:55;-3.60;99.90
7411;DHT22;3747;48.628;9.058;2023-02-28T04:13:23;-3.50;99.90
7411;DHT22;3747;48.628;9.058;2023-02-28T04:15:50;-3.50;99.90
7411;DHT22;3747;48.628;9.058;2023-02-28T04:18:16;-3.50;99.90
7411;DHT22;3747;48.628;9.058;2023-02-28T04:20:43;-3.50;99.90
7411;DHT22;3747;48.628;9.058;2023-02-28T04:23:11;-3.50;99.90
7411;DHT22;3747;48.628;9.058;2023-02-28T04:25:38;-3.50;99.90
7411;DHT22;3747;48.628;9.058;2023-02-28T04:28:05;-3.50;99.90
7411;DHT22;3747;48.628;9.058;2023-02-28T04:30:32;-3.50;99.90
7411;DHT22;3747;48.628;9.058;2023-02-28T04:32:59;-3.50;99.90
7411;DHT22;3747;48.628;9.058;2023-02-28T04:35:26;-3.40;99.90
7411;DHT22;3747;48.628;9.058;2023-02-28T04:37:53;-3.40;99.90
7411;DHT22;3747;48.628;9.058;2023-02-28T04:40:21;-3.40;99.90
7411;DHT22;3747;48.628;9.058;2023-02-28T04:42:47;-3.40;99.90
7411;DHT22;3747;48.628;9.058;2023-02-28T04:45:14;-3.40;99.90
7411;DHT22;3747;48.628;9.058;2023-02-28T04:47:42;-3.30;99.90
7411;DHT22;3747;48.628;9.058;2023-02-28T04:50:10;-3.30;99.90
7411;DHT22;3747;48.628;9.058;2023-02-28T04:52:36;-3.30;99.90
7411;DHT22;3747;48.628;9.058;2023-02-28T04:55:04;-3.30;99.90
7411;DHT22;3747;48.628;9.058;2023-02-28T04:57:32;-3.30;99.90
7411;DHT22;3747;48.628;9.058;2023-02-28T04:59:59;-3.30;99.90
7411;DHT22;3747;48.628;9.058;2023-02-28T05:02:25;-3.30;99.90
7411;DHT22;3747;48.628;9.058;2023-02-28T05:04:52;-3.20;99.90
7411;DHT22;3747;48.628;9.058;2023-02-28T05:07:19;-3.20;99.90
7411;DHT22;3747;48.628;9.058;2023-02-28T05:09:45;-3.30;99.90
7411;DHT22;3747;48.628;9.058;2023-02-28T05:12:12;-3.20;99.90
7411;DHT22;3747;48.628;9.058;2023-02-28T05:14:40;-3.20;99.90
7411;DHT22;3747;48.628;9.058;2023-02-28T05:17:08;-3.20;99.90
7411;DHT22;3747;48.628;9.058;2023-02-28T05:19:35;-3.20;99.90
7411;DHT22;3747;48.628;9.058;2023-02-28T05:22:01;-3.10;99.90
7411;DHT22;3747;48.628;9.058;2023-02-28T05:24:28;-3.10;99.90
7411;DHT22;3747;48.628;9.058;2023-02-28T05:26:55;-3.10;99.90
7411;DHT22;3747;48.628;9.058;2023-02-28T05:29:22;-3.10;99.90
7411;DHT22;3747;48.628;9.058;2023-02-28T05:31:50;-3.10;99.90
7411;DHT22;3747;48.628;9.058;2023-02-28T05:34:17;-3.10;99.90
7411;DHT22;3747;48.628;9.058;2023-02-28T05:36:44;-3.10;99.90
7411;DHT22;3747;48.628;9.058;2023-02-28T05:39:10;-3.20;99.90
7411;DHT22;3747;48.628;9.058;2023-02-28T05:41:40;-3.20;99.90
7411;DHT22;3747;48.628;9.058;2023-02-28T05:44:07;-3.10;99.90
7411;DHT22;3747;48.628;9.058;2023-02-28T05:46:33;-3.20;99.90
7411;DHT22;3747;48.628;9.058;2023-02-28T05:49:03;-3.20;99.90
7411;DHT22;3747;48.628;9.058;2023-02-28T05:51:30;-3.20;99.90
7411;DHT22;3747;48.628;9.058;2023-02-28T05:53:59;-3.10;99.90
7411;DHT22;3747;48.628;9.058;2023-02-28T05:56:26;-3.10;99.90
7411;DHT22;3747;48.628;9.058;2023-02-28T05:58:53;-3.20;99.90
7411;DHT22;3747;48.628;9.058;2023-02-28T06:01:23;-3.20;99.90
7411;DHT22;3747;48.628;9.058;2023-02-28T06:03:49;-3.20;99.90
7411;DHT22;3747;48.628;9.058;2023-02-28T06:06:17;-3.20;99.90
7411;DHT22;3747;48.628;9.058;2023-02-28T06:08:44;-3.20;99.90
7411;DHT22;3747;48.628;9.058;2023-02-28T06:11:11;-3.20;99.90
7411;DHT22;3747;48.628;9.058;2023-02-28T06:13:38;-3.10;99.90
7411;DHT22;3747;48.628;9.058;2023-02-28T06:16:05;-3.20;99.90
7411;DHT22;3747;48.628;9.058;2023-02-28T06:18:32;-3.20;99.90
7411;DHT22;3747;48.628;9.058;2023-02-28T06:20:59;-3.20;99.90
7411;DHT22;3747;48.628;9.058;2023-02-28T06:23:27;-3.10;99.90
7411;DHT22;3747;48.628;9.058;2023-02-28T06:25:54;-3.10;99.90
7411;DHT22;3747;48.628;9.058;2023-02-28T06:28:23;-3.10;99.90
7411;DHT22;3747;48.628;9.058;2023-02-28T06:30:50;-3.10;99.90
7411;DHT22;3747;48.628;9.058;2023-02-28T06:33:17;-3.10;99.90
7411;DHT22;3747;48.628;9.058;2023-02-28T06:35:44;-3.10;99.90
7411;DHT22;3747;48.628;9.058;2023-02-28T06:38:10;-3.00;99.90
7411;DHT22;3747;48.628;9.058;2023-02-28T06:40:38;-3.00;99.90
7411;DHT22;3747;48.628;9.058;2023-02-28T06:43:05;-2.90;99.90
7411;DHT22;3747;48.628;9.058;2023-02-28T06:45:32;-2.90;99.90
7411;DHT22;3747;48.628;9.058;2023-02-28T06:47:59;-2.90;99.90
7411;DHT22;3747;48.628;9.058;2023-02-28T06:50:26;-2.90;99.90
7411;DHT22;3747;48.628;9.058;2023-02-28T06:52:54;-2.90;99.90
7411;DHT22;3747;48.628;9.058;2023-02-28T06:55:21;-2.90;99.90
7411;DHT22;3747;48.628;9.058;2023-02-28T06:57:49;-2.80;99.90
7411;DHT22;3747;48.628;9.058;2023-02-28T07:00:17;-2.80;99.90
7411;DHT22;3747;48.628;9.058;2023-02-28T07:02:44;-2.80;99.90
7411;DHT22;3747;48.628;9.058;2023-02-28T07:05:11;-2.70;99.90
7411;DHT22;3747;48.628;9.058;2023-02-28T07:07:37;-2.70;99.90
7411;DHT22;3747;48.628;9.058;2023-02-28T07:10:06;-2.70;99.90
7411;DHT22;3747;48.628;9.058;2023-02-28T07:12:33;-2.60;99.90
7411;DHT22;3747;48.628;9.058;2023-02-28T07:15:01;-2.60;99.90
7411;DHT22;3747;48.628;9.058;2023-02-28T07:17:28;-2.60;99.90
7411;DHT22;3747;48.628;9.058;2023-02-28T07:19:55;-2.60;99.90
7411;DHT22;3747;48.628;9.058;2023-02-28T07:22:22;-2.50;99.90
7411;DHT22;3747;48.628;9.058;2023-02-28T07:24:50;-2.50;99.90
7411;DHT22;3747;48.628;9.058;2023-02-28T07:27:17;-2.50;99.90
7411;DHT22;3747;48.628;9.058;2023-02-28T07:29:49;-2.40;99.90
7411;DHT22;3747;48.628;9.058;2023-02-28T07:32:17;-2.30;99.90
7411;DHT22;3747;48.628;9.058;2023-02-28T07:34:44;-2.30;99.90
7411;DHT22;3747;48.628;9.058;2023-02-28T07:37:10;-2.30;99.90
7411;DHT22;3747;48.628;9.058;2023-02-28T07:39:37;-2.20;99.90
7411;DHT22;3747;48.628;9.058;2023-02-28T07:42:04;-2.20;99.90
7411;DHT22;3747;48.628;9.058;2023-02-28T07:44:31;-2.20;99.90
7411;DHT22;3747;48.628;9.058;2023-02-28T07:46:58;-2.20;99.90
7411;DHT22;3747;48.628;9.058;2023-02-28T07:49:26;-2.20;99.90
7411;DHT22;3747;48.628;9.058;2023-02-28T07:51:53;-2.20;99.90
7411;DHT22;3747;48.628;9.058;2023-02-28T07:54:19;-2.10;99.90
7411;DHT22;3747;48.628;9.058;2023-02-28T07:56:46;-2.10;99.90
7411;DHT22;3747;48.628;9.058;2023-02-28T07:59:12;-2.00;99.90
7411;DHT22;3747;48.628;9.058;2023-02-28T08:01:39;-1.90;99.90
7411;DHT22;3747;48.628;9.058;2023-02-28T08:04:06;-1.90;99.90
7411;DHT22;3747;48.628;9.058;2023-02-28T08:06:34;-1.90;99.90
7411;DHT22;3747;48.628;9.058;2023-02-28T08:09:01;-1.90;99.90
7411;DHT22;3747;48.628;9.058;2023-02-28T08:11:28;-2.00;99.90
7411;DHT22;3747;48.628;9.058;2023-02-28T08:13:55;-1.90;99.90
7411;DHT22;3747;48.628;9.058;2023-02-28T08:16:21;-1.80;99.90
7411;DHT22;3747;48.628;9.058;2023-02-28T08:18:49;-1.80;99.90
7411;DHT22;3747;48.628;9.058;2023-02-28T08:21:16;-1.70;99.90
7411;DHT22;3747;48.628;9.058;2023-02-28T08:23:46;-1.70;99.90
7411;DHT22;3747;48.628;9.058;2023-02-28T08:26:13;-1.60;99.90
7411;DHT22;3747;48.628;9.058;2023-02-28T08:28:39;-1.70;99.90
7411;DHT22;3747;48.628;9.058;2023-02-28T08:31:10;-1.60;99.90
7411;DHT22;3747;48.628;9.058;2023-02-28T08:33:39;-1.60;99.90
7411;DHT22;3747;48.628;9.058;2023-02-28T08:36:07;-1.50;99.90
7411;DHT22;3747;48.628;9.058;2023-02-28T08:38:34;-1.40;99.90
7411;DHT22;3747;48.628;9.058;2023-02-28T08:41:05;-1.40;99.90
7411;DHT22;3747;48.628;9.058;2023-02-28T08:43:33;-1.30;99.90
7411;DHT22;3747;48.628;9.058;2023-02-28T08:46:00;-1.30;99.90
7411;DHT22;3747;48.628;9.058;2023-02-28T08:48:27;-1.30;99.90
7411;DHT22;3747;48.628;9.058;2023-02-28T08:50:55;-1.30;99.90
7411;DHT22;3747;48.628;9.058;2023-02-28T08:53:22;-1.40;99.90
7411;DHT22;3747;48.628;9.058;2023-02-28T08:55:56;-1.30;99.90
7411;DHT22;3747;48.628;9.058;2023-02-28T08:58:24;-1.30;99.90
7411;DHT22;3747;48.628;9.058;2023-02-28T09:00:51;-1.20;99.90
7411;DHT22;3747;48.628;9.058;2023-02-28T09:03:18;-1.10;99.90
7411;DHT22;3747;48.628;9.058;2023-02-28T09:05:52;-1.00;99.90
7411;DHT22;3747;48.628;9.058;2023-02-28T09:08:18;-0.90;99.90
7411;DHT22;3747;48.628;9.058;2023-02-28T09:10:45;-0.80;99.90
7411;DHT22;3747;48.628;9.058;2023-02-28T09:13:12;-0.70;99.90
7411;DHT22;3747;48.628;9.058;2023-02-28T09:15:40;-0.70;99.90
7411;DHT22;3747;48.628;9.058;2023-02-28T09:18:07;-0.70;99.90
7411;DHT22;3747;48.628;9.058;2023-02-28T09:20:37;-0.60;99.90
7411;DHT22;3747;48.628;9.058;2023-02-28T09:23:04;-0.50;99.90
7411;DHT22;3747;48.628;9.058;2023-02-28T09:25:30;-0.60;99.90
7411;DHT22;3747;48.628;9.058;2023-02-28T09:27:57;-0.60;99.90
7411;DHT22;3747;48.628;9.058;2023-02-28T09:30:24;-0.60;99.90
7411;DHT22;3747;48.628;9.058;2023-02-28T09:32:52;-0.50;99.90
7411;DHT22;3747;48.628;9.058;2023-02-28T09:35:19;-0.50;99.90
7411;DHT22;3747;48.628;9.058;2023-02-28T09:37:46;-0.50;99.90
7411;DHT22;3747;48.628;9.058;2023-02-28T09:40:13;-0.60;99.90
7411;DHT22;3747;48.628;9.058;2023-02-28T09:42:44;-0.60;99.90
7411;DHT22;3747;48.628;9.058;2023-02-28T09:45:22;-0.40;99.90
7411;DHT22;3747;48.628;9.058;2023-02-28T09:47:52;-0.40;99.90
7411;DHT22;3747;48.628;9.058;2023-02-28T09:50:28;-0.20;99.90
7411;DHT22;3747;48.628;9.058;2023-02-28T09:52:56;-0.20;99.90
7411;DHT22;3747;48.628;9.058;2023-02-28T09:55:28;-0.10;99.90
7411;DHT22;3747;48.628;9.058;2023-02-28T09:57:56;-0.30;99.90
7411;DHT22;3747;48.628;9.058;2023-02-28T10:00:30;-0.20;99.90
7411;DHT22;3747;48.628;9.058;2023-02-28T10:03:18;-0.30;99.90
7411;DHT22;3747;48.628;9.058;2023-02-28T10:05:53;-0.20;99.90
7411;DHT22;3747;48.628;9.058;2023-02-28T10:08:25;-0.20;99.90
7411;DHT22;3747;48.628;9.058;2023-02-28T10:10:55;-0.30;99.90
7411;DHT22;3747;48.628;9.058;2023-02-28T10:13:26;-0.10;99.90
7411;DHT22;3747;48.628;9.058;2023-02-28T10:15:58;0.10;99.90
7411;DHT22;3747;48.628;9.058;2023-02-28T10:18:30;0.20;99.90
7411;DHT22;3747;48.628;9.058;2023-02-28T10:20:57;0.10;99.90
7411;DHT22;3747;48.628;9.058;2023-02-28T10:23:28;0.10;99.90
7411;DHT22;3747;48.628;9.058;2023-02-28T10:25:59;0.00;99.90
7411;DHT22;3747;48.628;9.058;2023-02-28T10:28:29;0.10;99.90
7411;DHT22;3747;48.628;9.058;2023-02-28T10:30:56;0.20;99.90
7411;DHT22;3747;48.628;9.058;2023-02-28T10:33:28;0.40;99.90
7411;DHT22;3747;48.628;9.058;2023-02-28T10:35:55;0.60;99.90
7411;DHT22;3747;48.628;9.058;2023-02-28T10:38:24;0.60;99.90
7411;DHT22;3747;48.628;9.058;2023-02-28T10:40:51;0.80;99.90
7411;DHT22;3747;48.628;9.058;2023-02-28T10:43:29;0.90;99.90
7411;DHT22;3747;48.628;9.058;2023-02-28T10:45:58;1.00;99.90
7411;DHT22;3747;48.628;9.058;2023-02-28T10:48:37;1.00;99.90
7411;DHT22;3747;48.628;9.058;2023-02-28T10:51:05;1.30;99.90
7411;DHT22;3747;48.628;9.058;2023-02-28T10:53:45;1.30;99.90
7411;DHT22;3747;48.628;9.058;2023-02-28T10:56:16;1.20;99.90
7411;DHT22;3747;48.628;9.058;2023-02-28T10:58:50;1.00;99.90
7411;DHT22;3747;48.628;9.058;2023-02-28T11:01:20;1.10;99.90
7411;DHT22;3747;48.628;9.058;2023-02-28T11:03:49;1.10;99.90
7411;DHT22;3747;48.628;9.058;2023-02-28T11:06:18;1.00;99.90
7411;DHT22;3747;48.628;9.058;2023-02-28T11:08:48;1.20;99.90
7411;DHT22;3747;48.628;9.058;2023-02-28T11:11:15;1.40;99.90
7411;DHT22;3747;48.628;9.058;2023-02-28T11:13:44;1.70;99.90
7411;DHT22;3747;48.628;9.058;2023-02-28T11:16:13;2.00;99.90
7411;DHT22;3747;48.628;9.058;2023-02-28T11:18:42;1.90;99.90
7411;DHT22;3747;48.628;9.058;2023-02-28T11:21:18;1.80;99.90
7411;DHT22;3747;48.628;9.058;2023-02-28T11:23:47;1.90;99.90
7411;DHT22;3747;48.628;9.058;2023-02-28T11:26:16;1.90;99.90
7411;DHT22;3747;48.628;9.058;2023-02-28T11:29:08;1.50;99.90
7411;DHT22;3747;48.628;9.058;2023-02-28T11:31:36;1.60;99.90
7411;DHT22;3747;48.628;9.058;2023-02-28T11:34:23;1.80;99.90
7411;DHT22;3747;48.628;9.058;2023-02-28T11:36:54;1.90;99.90
7411;DHT22;3747;48.628;9.058;2023-02-28T11:39:22;2.20;99.90
7411;DHT22;3747;48.628;9.058;2023-02-28T11:42:07;2.30;99.90
7411;DHT22;3747;48.628;9.058;2023-02-28T11:44:56;2.80;99.90
7411;DHT22;3747;48.628;9.058;2023-02-28T11:47:32;3.00;99.90
7411;DHT22;3747;48.628;9.058;2023-02-28T11:50:20;3.20;99.90
7411;DHT22;3747;48.628;9.058;2023-02-28T11:52:52;3.00;99.90
7411;DHT22;3747;48.628;9.058;2023-02-28T11:55:24;3.00;99.90
7411;DHT22;3747;48.628;9.058;2023-02-28T11:58:04;3.10;99.90
7411;DHT22;3747;48.628;9.058;2023-02-28T12:00:53;3.10;99.90
7411;DHT22;3747;48.628;9.058;2023-02-28T12:03:28;3.10;99.90
7411;DHT22;3747;48.628;9.058;2023-02-28T12:06:10;3.40;99.90
7411;DHT22;3747;48.628;9.058;2023-02-28T12:08:49;3.20;99.90
7411;DHT22;3747;48.628;9.058;2023-02-28T12:11:29;3.40;99.90
7411;DHT22;3747;48.628;9.058;2023-02-28T12:14:06;3.10;99.90
7411;DHT22;3747;48.628;9.058;2023-02-28T12:16:55;3.30;99.90
7411;DHT22;3747;48.628;9.058;2023-02-28T12:19:29;3.50;99.90
7411;DHT22;3747;48.628;9.058;2023-02-28T12:22:12;3.90;99.90
7411;DHT22;3747;48.628;9.058;2023-02-28T12:27:38;4.00;99.90
7411;DHT22;3747;48.628;9.058;2023-02-28T12:30:14;4.20;99.90
7411;DHT22;3747;48.628;9.058;2023-02-28T12:32:45;4.10;99.90
7411;DHT22;3747;48.628;9.058;2023-02-28T12:35:16;3.40;99.90
7411;DHT22;3747;48.628;9.058;2023-02-28T12:37:49;3.40;99.90
7411;DHT22;3747;48.628;9.058;2023-02-28T12:40:20;3.70;99.90
7411;DHT22;3747;48.628;9.058;2023-02-28T12:42:50;3.40;99.90
7411;DHT22;3747;48.628;9.058;2023-02-28T12:45:20;3.60;99.90
7411;DHT22;3747;48.628;9.058;2023-02-28T12:47:52;4.10;99.90
7411;DHT22;3747;48.628;9.058;2023-02-28T12:50:23;5.00;99.90
7411;DHT22;3747;48.628;9.058;2023-02-28T12:52:54;5.80;99.90
7411;DHT22;3747;48.628;9.058;2023-02-28T12:55:30;6.10;99.90
7411;DHT22;3747;48.628;9.058;2023-02-28T12:58:05;6.20;99.90
7411;DHT22;3747;48.628;9.058;2023-02-28T13:00:36;6.00;99.90
7411;DHT22;3747;48.628;9.058;2023-02-28T13:03:24;5.70;99.90
7411;DHT22;3747;48.628;9.058;2023-02-28T13:06:34;6.10;99.90
7411;DHT22;3747;48.628;9.058;2023-02-28T13:09:11;6.10;99.90
7411;DHT22;3747;48.628;9.058;2023-02-28T13:11:43;6.40;99.90
7411;DHT22;3747;48.628;9.058;2023-02-28T13:14:22;6.80;99.90
7411;DHT22;3747;48.628;9.058;2023-02-28T13:17:01;6.60;99.90
7411;DHT22;3747;48.628;9.058;2023-02-28T13:19:30;6.80;99.90
7411;DHT22;3747;48.628;9.058;2023-02-28T13:21:58;7.00;99.90
7411;DHT22;3747;48.628;9.058;2023-02-28T13:24:47;7.10;99.90
7411;DHT22;3747;48.628;9.058;2023-02-28T13:27:34;7.70;99.90
7411;DHT22;3747;48.628;9.058;2023-02-28T13:33:25;7.50;99.90
7411;DHT22;3747;48.628;9.058;2023-02-28T13:36:25;7.00;99.90
7411;DHT22;3747;48.628;9.058;2023-02-28T13:38:52;7.00;99.90
7411;DHT22;3747;48.628;9.058;2023-02-28T13:41:44;6.70;99.90
7411;DHT22;3747;48.628;9.058;2023-02-28T13:44:14;6.30;99.90
7411;DHT22;3747;48.628;9.058;2023-02-28T13:47:19;6.30;99.90
7411;DHT22;3747;48.628;9.058;2023-02-28T13:49:47;6.20;99.90
7411;DHT22;3747;48.628;9.058;2023-02-28T13:52:17;6.60;99.90
7411;DHT22;3747;48.628;9.058;2023-02-28T13:54:56;6.90;99.90
7411;DHT22;3747;48.628;9.058;2023-02-28T13:57:35;7.30;99.90
7411;DHT22;3747;48.628;9.058;2023-02-28T14:00:16;7.40;99.90
7411;DHT22;3747;48.628;9.058;2023-02-28T14:02:56;7.10;99.80
7411;DHT22;3747;48.628;9.058;2023-02-28T14:05:27;6.30;99.90
7411;DHT22;3747;48.628;9.058;2023-02-28T14:07:57;6.10;99.90
7411;DHT22;3747;48.628;9.058;2023-02-28T14:10:27;6.50;99.90
7411;DHT22;3747;48.628;9.058;2023-02-28T14:13:00;6.70;99.90
7411;DHT22;3747;48.628;9.058;2023-02-28T14:15:40;6.90;99.90
7411;DHT22;3747;48.628;9.058;2023-02-28T14:18:20;7.20;99.90
7411;DHT22;3747;48.628;9.058;2023-02-28T14:20:49;6.80;99.90
7411;DHT22;3747;48.628;9.058;2023-02-28T14:23:36;6.90;99.90
7411;DHT22;3747;48.628;9.058;2023-02-28T14:26:16;7.30;99.90
7411;DHT22;3747;48.628;9.058;2023-02-28T14:28:54;7.80;99.90
7411;DHT22;3747;48.628;9.058;2023-02-28T14:31:28;7.80;99.50
7411;DHT22;3747;48.628;9.058;2023-02-28T14:34:31;8.00;99.20
7411;DHT22;3747;48.628;9.058;2023-02-28T14:37:13;7.90;98.90
7411;DHT22;3747;48.628;9.058;2023-02-28T14:39:42;8.30;98.60
7411;DHT22;3747;48.628;9.058;2023-02-28T14:42:28;8.30;99.60
7411;DHT22;3747;48.628;9.058;2023-02-28T14:44:55;8.20;98.90
7411;DHT22;3747;48.628;9.058;2023-02-28T14:47:27;7.90;98.60
7411;DHT22;3747;48.628;9.058;2023-02-28T14:49:54;7.90;98.40
7411;DHT22;3747;48.628;9.058;2023-02-28T14:52:22;7.80;98.30
7411;DHT22;3747;48.628;9.058;2023-02-28T14:54:52;8.10;98.40
7411;DHT22;3747;48.628;9.058;2023-02-28T14:57:28;7.60;99.20
7411;DHT22;3747;48.628;9.058;2023-02-28T15:00:03;7.80;99.20
7411;DHT22;3747;48.628;9.058;2023-02-28T15:02:38;8.20;98.10
7411;DHT22;3747;48.628;9.058;2023-02-28T15:05:20;8.20;97.80
7411;DHT22;3747;48.628;9.058;2023-02-28T15:07:59;8.40;98.10
7411;DHT22;3747;48.628;9.058;2023-02-28T15:10:27;7.90;98.20
7411;DHT22;3747;48.628;9.058;2023-02-28T15:12:56;8.10;98.20
7411;DHT22;3747;48.628;9.058;2023-02-28T15:15:39;8.10;98.60
7411;DHT22;3747;48.628;9.058;2023-02-28T15:18:13;8.40;97.90
7411;DHT22;3747;48.628;9.058;2023-02-28T15:20:42;8.40;98.40
7411;DHT22;3747;48.628;9.058;2023-02-28T15:23:10;8.10;97.60
7411;DHT22;3747;48.628;9.058;2023-02-28T15:25:37;7.70;97.50
7411;DHT22;3747;48.628;9.058;2023-02-28T15:28:04;7.50;98.10
7411;DHT22;3747;48.628;9.058;2023-02-28T15:30:31;7.10;97.60
7411;DHT22;3747;48.628;9.058;2023-02-28T15:33:04;6.40;98.40
7411;DHT22;3747;48.628;9.058;2023-02-28T15:35:35;6.50;98.70
7411;DHT22;3747;48.628;9.058;2023-02-28T15:38:03;6.60;99.20
7411;DHT22;3747;48.628;9.058;2023-02-28T15:40:32;6.80;98.60
7411;DHT22;3747;48.628;9.058;2023-02-28T15:43:06;6.70;98.30
7411;DHT22;3747;48.628;9.058;2023-02-28T15:45:37;6.30;99.00
7411;DHT22;3747;48.628;9.058;2023-02-28T15:48:18;6.00;99.00
7411;DHT22;3747;48.628;9.058;2023-02-28T15:50:49;6.20;99.40
7411;DHT22;3747;48.628;9.058;2023-02-28T15:53:20;5.90;99.80
7411;DHT22;3747;48.628;9.058;2023-02-28T15:55:54;6.10;99.60
7411;DHT22;3747;48.628;9.058;2023-02-28T15:58:22;5.90;99.60
7411;DHT22;3747;48.628;9.058;2023-02-28T16:01:05;5.50;99.70
7411;DHT22;3747;48.628;9.058;2023-02-28T16:03:41;5.70;99.90
7411;DHT22;3747;48.628;9.058;2023-02-28T16:06:26;5.70;99.70
7411;DHT22;3747;48.628;9.058;2023-02-28T16:08:57;5.90;99.90
7411;DHT22;3747;48.628;9.058;2023-02-28T16:11:23;5.90;99.80
7411;DHT22;3747;48.628;9.058;2023-02-28T16:13:51;5.70;99.60
7411;DHT22;3747;48.628;9.058;2023-02-28T16:16:19;5.40;99.90
7411;DHT22;3747;48.628;9.058;2023-02-28T16:18:46;5.40;99.90
7411;DHT22;3747;48.628;9.058;2023-02-28T16:21:14;5.40;99.90
7411;DHT22;3747;48.628;9.058;2023-02-28T16:23:41;5.50;99.90
7411;DHT22;3747;48.628;9.058;2023-02-28T16:26:08;5.30;99.90
7411;DHT22;3747;48.628;9.058;2023-02-28T16:28:39;5.20;99.90
7411;DHT22;3747;48.628;9.058;2023-02-28T16:31:06;5.10;99.90
7411;DHT22;3747;48.628;9.058;2023-02-28T16:33:33;5.00;99.90
7411;DHT22;3747;48.628;9.058;2023-02-28T16:36:00;4.90;99.90
7411;DHT22;3747;48.628;9.058;2023-02-28T16:38:28;4.40;99.90
7411;DHT22;3747;48.628;9.058;2023-02-28T16:40:57;4.20;99.90
7411;DHT22;3747;48.628;9.058;2023-02-28T16:43:26;3.70;99.90